METAR Data

Data at: 1130 UTC 24 May 2022

METAR for:KBOS (Boston/Logan Intl, MA, US)
Text:KBOS 241054Z 04012KT 10SM FEW090 BKN160 BKN250 13/04 A3034 RMK AO2 SLP273 T01280044
Temperature: 12.8°C ( 55°F)
Dewpoint: 4.4°C ( 40°F) [RH = 57%]
Pressure (altimeter):30.34 inches Hg (1027.5 mb) [Sea level pressure: 1027.3 mb]
Winds:from the NE (40 degrees) at 14 MPH (12 knots; 6.2 m/s)
Visibility:10 or more sm (16+ km)
Ceiling:16000 feet AGL
Clouds: few clouds at 9000 feet AGL, broken clouds at 16000 feet AGL, broken clouds at 25000 feet AGL